Time,TemperatureF,DewpointF,PressureIn,WindDirection,WindDirectionDegrees,WindSpeedMPH,WindSpeedGustMPH,Humidity,HourlyPrecipIn,Conditions,Clouds,dailyrainin,SoftwareType,DateUTC
2012-11-07 00:02:00,49.3,48.7,28.77,NNE,22,0.0,6.0,98,0.00,,,0.20,meteohub,2012-11-07 08:02:00,
2012-11-07 00:07:00,49.3,48.7,28.77,NNW,338,2.0,6.0,98,0.00,,,0.00,meteohub,2012-11-07 08:07:00,
2012-11-07 00:12:00,49.1,48.6,28.80,WNW,292,0.0,2.0,98,0.00,,,0.00,meteohub,2012-11-07 08:12:00,
2012-11-07 00:17:00,49.1,48.6,28.80,WSW,248,0.0,3.0,98,0.00,,,0.00,meteohub,2012-11-07 08:17:00,
2012-11-07 00:22:00,49.1,48.6,28.80,West,270,0.0,3.0,98,0.00,,,0.00,meteohub,2012-11-07 08:22:00,
2012-11-07 00:27:00,48.9,48.4,28.80,NNW,338,0.0,3.0,98,0.00,,,0.00,meteohub,2012-11-07 08:27:00,
2012-11-07 00:32:00,48.9,48.4,28.80,WSW,248,1.0,3.0,98,0.00,,,0.00,meteohub,2012-11-07 08:32:00,
2012-11-07 00:37:00,48.7,48.2,28.80,ESE,112,2.0,2.0,98,0.00,,,0.00,meteohub,2012-11-07 08:37:00,
2012-11-07 00:42:00,48.7,48.2,28.80,ESE,112,0.0,2.0,98,0.00,,,0.00,meteohub,2012-11-07 08:42:00,
2012-11-07 00:47:00,48.7,48.2,28.80,ESE,112,0.0,2.0,98,0.00,,,0.00,meteohub,2012-11-07 08:47:00,
2012-11-07 00:52:00,48.6,48.0,28.80,ESE,112,0.0,2.0,98,0.00,,,0.00,meteohub,2012-11-07 08:52:00,
2012-11-07 00:57:00,48.6,48.0,28.80,South,180,0.0,0.0,98,0.00,,,0.00,meteohub,2012-11-07 08:57:00,
2012-11-07 01:02:00,48.4,47.8,28.80,SSW,202,0.0,1.0,98,0.00,,,0.00,meteohub,2012-11-07 09:02:00,
2012-11-07 01:07:00,48.4,47.8,28.80,SSW,202,0.0,1.0,98,0.00,,,0.00,meteohub,2012-11-07 09:07:00,
2012-11-07 01:12:00,48.4,47.8,28.80,SSW,202,0.0,1.0,98,0.00,,,0.00,meteohub,2012-11-07 09:12:00,
2012-11-07 01:18:00,48.4,47.8,28.80,SSW,202,0.0,0.0,98,0.00,,,0.00,meteohub,2012-11-07 09:18:00,
2012-11-07 01:23:00,48.4,47.8,28.80,SE,135,0.0,0.0,98,0.00,,,0.00,meteohub,2012-11-07 09:23:00,
2012-11-07 01:28:00,48.2,47.7,28.80,SE,135,0.0,0.0,98,0.00,,,0.00,meteohub,2012-11-07 09:28:00,
2012-11-07 01:33:00,48.2,47.7,28.80,SE,135,0.0,2.0,98,0.00,,,0.00,meteohub,2012-11-07 09:33:00,
2012-11-07 01:39:00,48.2,47.7,28.80,SE,135,0.0,2.0,98,0.00,,,0.00,meteohub,2012-11-07 09:39:00,
2012-11-07 01:44:00,48.2,47.7,28.80,SE,135,0.0,2.0,98,0.00,,,0.00,meteohub,2012-11-07 09:44:00,
2012-11-07 01:49:00,48.2,47.7,28.80,SE,135,0.0,0.0,98,0.00,,,0.00,meteohub,2012-11-07 09:49:00,
2012-11-07 01:54:00,48.2,47.7,28.80,SE,135,0.0,0.0,98,0.00,,,0.00,meteohub,2012-11-07 09:54:00,
2012-11-07 01:59:00,48.2,47.7,28.80,SE,135,0.0,0.0,98,0.00,,,0.00,meteohub,2012-11-07 09:59:00,
2012-11-07 02:05:00,48.0,47.5,28.80,SE,135,0.0,0.0,98,0.00,,,0.00,meteohub,2012-11-07 10:05:00,
2012-11-07 02:10:00,48.0,47.5,28.83,SSW,202,0.0,0.0,98,0.00,,,0.00,meteohub,2012-11-07 10:10:00,
2012-11-07 02:15:00,48.0,47.5,28.83,ESE,112,0.0,0.0,98,0.00,,,0.00,meteohub,2012-11-07 10:15:00,
2012-11-07 02:20:00,47.8,47.3,28.83,ESE,112,0.0,0.0,98,0.00,,,0.00,meteohub,2012-11-07 10:20:00,
2012-11-07 02:25:00,47.8,47.3,28.83,SSE,158,0.0,0.0,98,0.00,,,0.00,meteohub,2012-11-07 10:25:00,
2012-11-07 02:30:00,47.5,46.9,28.83,SSE,158,0.0,0.0,98,0.00,,,0.00,meteohub,2012-11-07 10:30:00,
2012-11-07 02:36:00,47.3,46.8,28.83,SSE,158,0.0,0.0,98,0.00,,,0.00,meteohub,2012-11-07 10:36:00,
2012-11-07 02:41:00,47.1,46.6,28.83,SSE,158,0.0,0.0,98,0.00,,,0.00,meteohub,2012-11-07 10:41:00,
2012-11-07 02:46:00,46.9,46.4,28.83,SSE,158,0.0,0.0,98,0.00,,,0.00,meteohub,2012-11-07 10:46:00,
2012-11-07 02:52:00,46.8,46.2,28.83,SSE,158,0.0,0.0,98,0.00,,,0.00,meteohub,2012-11-07 10:52:00,
2012-11-07 02:57:00,46.6,46.0,28.83,SSE,158,0.0,0.0,98,0.00,,,0.00,meteohub,2012-11-07 10:57:00,
2012-11-07 03:02:00,46.4,45.9,28.83,SSW,202,0.0,0.0,98,0.00,,,0.00,meteohub,2012-11-07 11:02:00,
2012-11-07 03:07:00,46.2,45.7,28.83,SSW,202,0.0,0.0,98,0.00,,,0.00,meteohub,2012-11-07 11:07:00,
2012-11-07 03:12:00,46.0,45.5,28.86,SSW,202,0.0,0.0,98,0.00,,,0.00,meteohub,2012-11-07 11:12:00,
2012-11-07 03:17:00,45.9,45.3,28.86,SSW,202,0.0,0.0,98,0.00,,,0.00,meteohub,2012-11-07 11:17:00,
2012-11-07 03:22:00,45.9,45.3,28.86,SSW,202,0.0,0.0,98,0.00,,,0.00,meteohub,2012-11-07 11:22:00,
2012-11-07 03:27:00,45.7,45.1,28.86,South,180,0.0,0.0,98,0.00,,,0.00,meteohub,2012-11-07 11:27:00,
2012-11-07 03:32:00,45.9,45.3,28.86,South,180,0.0,0.0,98,0.00,,,0.00,meteohub,2012-11-07 11:32:00,
2012-11-07 03:37:00,45.9,45.3,28.86,South,180,0.0,0.0,98,0.00,,,0.00,meteohub,2012-11-07 11:37:00,
2012-11-07 03:42:00,45.9,45.3,28.86,South,180,0.0,0.0,98,0.00,,,0.00,meteohub,2012-11-07 11:42:00,
2012-11-07 03:47:00,45.9,45.3,28.86,South,180,0.0,0.0,98,0.00,,,0.00,meteohub,2012-11-07 11:47:00,
2012-11-07 03:52:00,45.9,45.3,28.86,South,180,0.0,0.0,98,0.00,,,0.00,meteohub,2012-11-07 11:52:00,
2012-11-07 03:57:00,46.0,45.5,28.86,South,180,0.0,0.0,98,0.00,,,0.00,meteohub,2012-11-07 11:57:00,
2012-11-07 04:02:00,45.9,45.3,28.86,South,180,0.0,0.0,98,0.00,,,0.00,meteohub,2012-11-07 12:02:00,
2012-11-07 04:07:00,45.9,45.3,28.86,South,180,0.0,0.0,98,0.04,,,0.04,meteohub,2012-11-07 12:07:00,
2012-11-07 04:12:00,45.9,45.3,28.86,South,180,0.0,0.0,98,0.04,,,0.04,meteohub,2012-11-07 12:12:00,
2012-11-07 04:17:00,45.7,45.1,28.86,South,180,0.0,0.0,98,0.04,,,0.04,meteohub,2012-11-07 12:17:00,
2012-11-07 04:22:00,45.7,45.1,28.86,South,180,0.0,0.0,98,0.04,,,0.04,meteohub,2012-11-07 12:22:00,
2012-11-07 04:27:00,45.7,45.1,28.86,South,180,0.0,0.0,98,0.04,,,0.04,meteohub,2012-11-07 12:27:00,
2012-11-07 04:32:00,45.5,45.0,28.86,South,180,0.0,0.0,98,0.04,,,0.04,meteohub,2012-11-07 12:32:00,
2012-11-07 04:37:00,45.5,45.0,28.86,South,180,0.0,0.0,98,0.04,,,0.04,meteohub,2012-11-07 12:37:00,
2012-11-07 04:42:00,45.1,44.6,28.86,South,180,0.0,0.0,98,0.04,,,0.04,meteohub,2012-11-07 12:42:00,
2012-11-07 04:47:00,45.0,44.4,28.86,South,180,0.0,0.0,98,0.04,,,0.04,meteohub,2012-11-07 12:47:00,
2012-11-07 04:52:00,44.8,44.2,28.86,South,180,0.0,0.0,98,0.04,,,0.04,meteohub,2012-11-07 12:52:00,
2012-11-07 04:57:00,44.6,44.1,28.86,South,180,0.0,0.0,98,0.04,,,0.04,meteohub,2012-11-07 12:57:00,
2012-11-07 05:02:00,44.4,43.9,28.86,South,180,0.0,0.0,98,0.04,,,0.04,meteohub,2012-11-07 13:02:00,
2012-11-07 05:07:00,44.4,43.9,28.86,SSE,158,0.0,0.0,98,0.00,,,0.04,meteohub,2012-11-07 13:07:00,
2012-11-07 05:13:00,44.2,43.7,28.86,SSE,158,0.0,0.0,98,0.00,,,0.04,meteohub,2012-11-07 13:13:00,
2012-11-07 05:18:00,44.2,43.7,28.86,SSE,158,0.0,0.0,98,0.00,,,0.04,meteohub,2012-11-07 13:18:00,
2012-11-07 05:23:00,44.1,43.5,28.86,SSE,158,0.0,0.0,98,0.00,,,0.04,meteohub,2012-11-07 13:23:00,
2012-11-07 05:29:00,44.1,43.5,28.86,SSE,158,0.0,0.0,98,0.00,,,0.04,meteohub,2012-11-07 13:29:00,
2012-11-07 05:34:00,44.1,43.5,28.86,SSE,158,0.0,0.0,98,0.00,,,0.04,meteohub,2012-11-07 13:34:00,
2012-11-07 05:39:00,43.9,43.3,28.86,SSE,158,0.0,0.0,98,0.00,,,0.04,meteohub,2012-11-07 13:39:00,
2012-11-07 05:44:00,43.9,43.3,28.86,SSE,158,0.0,0.0,98,0.00,,,0.04,meteohub,2012-11-07 13:44:00,
2012-11-07 05:50:00,43.9,43.3,28.86,SSE,158,0.0,0.0,98,0.00,,,0.04,meteohub,2012-11-07 13:50:00,
2012-11-07 05:55:00,43.9,43.3,28.83,SSE,158,0.0,0.0,98,0.00,,,0.04,meteohub,2012-11-07 13:55:00,
2012-11-07 06:01:00,43.9,43.3,28.83,SSE,158,0.0,0.0,98,0.00,,,0.04,meteohub,2012-11-07 14:01:00,
2012-11-07 06:06:00,43.7,43.2,28.83,SSE,158,0.0,0.0,98,0.00,,,0.04,meteohub,2012-11-07 14:06:00,
2012-11-07 06:12:00,43.7,43.2,28.86,SSE,158,0.0,0.0,98,0.00,,,0.04,meteohub,2012-11-07 14:12:00,
2012-11-07 06:17:00,43.7,43.2,28.86,SSE,158,0.0,0.0,98,0.00,,,0.04,meteohub,2012-11-07 14:17:00,
2012-11-07 06:22:00,43.7,43.2,28.86,SSE,158,0.0,0.0,98,0.00,,,0.04,meteohub,2012-11-07 14:22:00,
2012-11-07 06:27:00,43.7,43.2,28.86,SSE,158,0.0,0.0,98,0.00,,,0.04,meteohub,2012-11-07 14:27:00,
2012-11-07 06:32:00,43.5,43.0,28.86,SSE,158,0.0,0.0,98,0.00,,,0.04,meteohub,2012-11-07 14:32:00,
2012-11-07 06:37:00,43.5,43.0,28.86,SSE,158,0.0,0.0,98,0.00,,,0.04,meteohub,2012-11-07 14:37:00,
2012-11-07 06:43:00,43.5,43.0,28.86,SSE,158,0.0,0.0,98,0.00,,,0.04,meteohub,2012-11-07 14:43:00,
2012-11-07 06:48:00,43.5,43.0,28.86,SSE,158,0.0,0.0,98,0.00,,,0.04,meteohub,2012-11-07 14:48:00,
2012-11-07 06:53:00,43.5,43.0,28.86,North,-999,-999.0,0.0,98,0.00,,,0.04,meteohub,2012-11-07 14:53:00,
2012-11-07 07:34:00,42.8,42.3,28.86,North,-999,-999.0,-999.0,98,0.00,,,0.04,meteohub,2012-11-07 15:34:00,
2012-11-07 07:40:00,42.8,42.3,28.86,SSE,158,0.0,-999.0,98,0.00,,,0.04,meteohub,2012-11-07 15:40:00,
2012-11-07 07:45:00,42.6,42.1,28.83,SSE,158,0.0,0.0,98,0.00,,,0.04,meteohub,2012-11-07 15:45:00,
2012-11-07 07:50:00,42.6,42.1,28.83,SSE,158,0.0,0.0,98,0.00,,,0.04,meteohub,2012-11-07 15:50:00,
2012-11-07 07:56:00,42.4,41.9,28.86,SSE,158,0.0,0.0,98,0.00,,,0.04,meteohub,2012-11-07 15:56:00,
2012-11-07 08:01:00,42.4,41.9,28.86,SSE,158,0.0,0.0,98,0.00,,,0.04,meteohub,2012-11-07 16:01:00,
2012-11-07 08:07:00,42.4,41.9,28.86,SSE,158,0.0,0.0,98,0.00,,,0.04,meteohub,2012-11-07 16:07:00,
2012-11-07 08:12:00,42.6,42.1,28.86,SSE,158,0.0,0.0,98,0.00,,,0.04,meteohub,2012-11-07 16:12:00,
2012-11-07 08:17:00,42.6,42.1,28.86,SSE,158,0.0,0.0,98,0.00,,,0.04,meteohub,2012-11-07 16:17:00,
2012-11-07 08:22:00,42.6,42.1,28.86,SSE,158,0.0,0.0,98,0.00,,,0.04,meteohub,2012-11-07 16:22:00,
2012-11-07 08:27:00,42.6,42.1,28.86,SSE,158,0.0,0.0,98,0.00,,,0.04,meteohub,2012-11-07 16:27:00,
2012-11-07 08:32:00,42.6,42.1,28.86,SSE,158,0.0,0.0,98,0.00,,,0.04,meteohub,2012-11-07 16:32:00,
2012-11-07 08:37:00,42.8,42.3,28.86,SSE,158,0.0,0.0,98,0.00,,,0.04,meteohub,2012-11-07 16:37:00,
2012-11-07 08:42:00,42.8,42.3,28.86,SSE,158,0.0,0.0,98,0.00,,,0.04,meteohub,2012-11-07 16:42:00,
2012-11-07 08:48:00,43.0,42.4,28.86,SSE,158,0.0,0.0,98,0.00,,,0.04,meteohub,2012-11-07 16:48:00,
2012-11-07 08:53:00,43.0,42.4,28.86,SSE,158,0.0,0.0,98,0.00,,,0.04,meteohub,2012-11-07 16:53:00,
2012-11-07 08:58:00,43.2,42.6,28.86,SSE,158,0.0,0.0,98,0.00,,,0.04,meteohub,2012-11-07 16:58:00,
2012-11-07 09:03:00,43.3,42.8,28.86,SSE,158,0.0,0.0,98,0.00,,,0.04,meteohub,2012-11-07 17:03:00,
2012-11-07 09:08:00,43.5,43.0,28.83,SSE,158,0.0,0.0,98,0.00,,,0.04,meteohub,2012-11-07 17:08:00,
2012-11-07 09:13:00,43.7,43.2,28.83,SSE,158,0.0,0.0,98,0.00,,,0.04,meteohub,2012-11-07 17:13:00,
2012-11-07 09:19:00,43.7,43.2,28.83,SSE,158,0.0,0.0,98,0.00,,,0.04,meteohub,2012-11-07 17:19:00,
2012-11-07 09:24:00,44.1,43.5,28.86,SSE,158,0.0,0.0,98,0.00,,,0.04,meteohub,2012-11-07 17:24:00,
2012-11-07 09:29:00,44.2,43.7,28.86,SSE,158,0.0,0.0,98,0.00,,,0.04,meteohub,2012-11-07 17:29:00,
2012-11-07 09:34:00,45.0,44.4,28.86,SSE,158,0.0,0.0,98,0.00,,,0.04,meteohub,2012-11-07 17:34:00,
2012-11-07 09:39:00,45.5,45.0,28.86,SSE,158,0.0,0.0,98,0.00,,,0.04,meteohub,2012-11-07 17:39:00,
2012-11-07 09:44:00,45.9,45.3,28.86,SSE,158,0.0,0.0,98,0.00,,,0.04,meteohub,2012-11-07 17:44:00,
2012-11-07 09:50:00,46.2,45.7,28.86,SSE,158,0.0,0.0,98,0.00,,,0.04,meteohub,2012-11-07 17:50:00,
2012-11-07 09:55:00,46.6,46.0,28.86,SSE,158,0.0,0.0,98,0.00,,,0.04,meteohub,2012-11-07 17:55:00,
2012-11-07 10:00:00,46.8,46.2,28.86,SSE,158,0.0,0.0,98,0.00,,,0.04,meteohub,2012-11-07 18:00:00,
2012-11-07 10:05:00,46.9,46.4,28.86,SSE,158,0.0,0.0,98,0.00,,,0.04,meteohub,2012-11-07 18:05:00,
2012-11-07 10:10:00,47.3,46.8,28.83,SSE,158,0.0,0.0,98,0.00,,,0.04,meteohub,2012-11-07 18:10:00,
2012-11-07 10:15:00,47.7,47.1,28.83,SSE,158,0.0,0.0,98,0.00,,,0.04,meteohub,2012-11-07 18:15:00,
2012-11-07 10:21:00,47.7,47.1,28.83,South,180,0.0,1.0,98,0.00,,,0.04,meteohub,2012-11-07 18:21:00,
2012-11-07 10:26:00,47.3,46.8,28.86,South,180,0.0,1.0,98,0.00,,,0.04,meteohub,2012-11-07 18:26:00,
2012-11-07 10:32:00,47.1,46.6,28.86,South,180,0.0,1.0,98,0.00,,,0.04,meteohub,2012-11-07 18:32:00,
2012-11-07 10:37:00,46.8,46.2,28.86,South,180,0.0,0.0,98,0.00,,,0.04,meteohub,2012-11-07 18:37:00,
2012-11-07 10:42:00,46.6,46.0,28.86,South,180,0.0,0.0,98,0.00,,,0.04,meteohub,2012-11-07 18:42:00,
2012-11-07 10:47:00,46.2,45.7,28.86,South,180,0.0,0.0,98,0.00,,,0.04,meteohub,2012-11-07 18:47:00,
2012-11-07 10:53:00,46.0,45.5,28.86,South,180,0.0,0.0,98,0.00,,,0.04,meteohub,2012-11-07 18:53:00,
2012-11-07 10:58:00,46.0,45.5,28.86,South,180,0.0,0.0,98,0.00,,,0.04,meteohub,2012-11-07 18:58:00,
2012-11-07 11:03:00,45.9,45.3,28.86,South,180,0.0,0.0,98,0.00,,,0.04,meteohub,2012-11-07 19:03:00,
2012-11-07 11:08:00,45.9,45.3,28.86,South,180,0.0,0.0,98,0.00,,,0.04,meteohub,2012-11-07 19:08:00,
2012-11-07 11:13:00,45.9,45.3,28.86,South,180,0.0,0.0,98,0.00,,,0.04,meteohub,2012-11-07 19:13:00,
2012-11-07 11:18:00,45.7,45.1,28.86,South,180,0.0,0.0,98,0.00,,,0.04,meteohub,2012-11-07 19:18:00,
2012-11-07 11:23:00,45.7,45.1,28.86,South,180,0.0,0.0,98,0.00,,,0.04,meteohub,2012-11-07 19:23:00,
2012-11-07 11:28:00,46.0,45.5,28.86,South,180,0.0,0.0,98,0.00,,,0.04,meteohub,2012-11-07 19:28:00,
2012-11-07 11:34:00,46.2,45.7,28.86,South,180,0.0,0.0,98,0.00,,,0.04,meteohub,2012-11-07 19:34:00,
2012-11-07 11:39:00,46.4,45.9,28.86,SSE,158,0.0,0.0,98,0.00,,,0.04,meteohub,2012-11-07 19:39:00,
2012-11-07 11:44:00,46.6,46.0,28.86,SSE,158,0.0,0.0,98,0.00,,,0.04,meteohub,2012-11-07 19:44:00,
2012-11-07 11:50:00,46.6,46.0,28.86,SSE,158,0.0,0.0,98,0.00,,,0.04,meteohub,2012-11-07 19:50:00,
2012-11-07 11:55:00,46.8,46.2,28.86,SSE,158,0.0,0.0,98,0.00,,,0.04,meteohub,2012-11-07 19:55:00,
2012-11-07 12:00:00,46.9,46.4,28.86,SSE,158,0.0,0.0,98,0.00,,,0.04,meteohub,2012-11-07 20:00:00,
2012-11-07 12:05:00,46.9,46.4,28.86,SSE,158,0.0,0.0,98,0.00,,,0.04,meteohub,2012-11-07 20:05:00,
2012-11-07 12:11:00,47.1,46.6,28.86,SSE,158,0.0,0.0,98,0.00,,,0.04,meteohub,2012-11-07 20:11:00,
2012-11-07 12:16:00,46.9,46.4,28.86,West,270,0.0,2.0,98,0.00,,,0.04,meteohub,2012-11-07 20:16:00,
2012-11-07 12:21:00,46.4,45.9,28.86,NW,315,2.0,4.0,98,0.00,,,0.04,meteohub,2012-11-07 20:21:00,
2012-11-07 12:26:00,46.0,45.5,28.86,SW,225,0.0,4.0,98,0.00,,,0.04,meteohub,2012-11-07 20:26:00,
2012-11-07 12:31:00,46.0,45.5,28.86,SSW,202,0.0,4.0,98,0.00,,,0.04,meteohub,2012-11-07 20:31:00,
2012-11-07 12:37:00,46.0,45.5,28.86,SSW,202,0.0,2.0,98,0.00,,,0.04,meteohub,2012-11-07 20:37:00,
2012-11-07 12:42:00,45.9,45.3,28.86,SSW,202,0.0,1.0,98,0.00,,,0.04,meteohub,2012-11-07 20:42:00,
2012-11-07 12:47:00,46.0,45.5,28.86,SSW,202,0.0,1.0,98,0.00,,,0.04,meteohub,2012-11-07 20:47:00,
2012-11-07 12:52:00,46.2,45.7,28.86,SSW,202,0.0,1.0,98,0.00,,,0.04,meteohub,2012-11-07 20:52:00,
2012-11-07 12:57:00,46.2,45.7,28.83,SSW,202,0.0,0.0,98,0.00,,,0.04,meteohub,2012-11-07 20:57:00,
2012-11-07 13:02:00,46.4,45.9,28.83,SSW,202,0.0,0.0,98,0.00,,,0.04,meteohub,2012-11-07 21:02:00,
2012-11-07 13:07:00,46.4,45.9,28.83,ESE,112,1.0,0.0,98,0.00,,,0.04,meteohub,2012-11-07 21:07:00,
2012-11-07 13:12:00,46.4,45.9,28.83,SE,135,0.0,2.0,98,0.00,,,0.04,meteohub,2012-11-07 21:12:00,
2012-11-07 13:17:00,46.6,46.0,28.83,SE,135,2.0,2.0,98,0.00,,,0.04,meteohub,2012-11-07 21:17:00,
2012-11-07 13:22:00,46.2,45.7,28.83,SE,135,1.0,2.0,98,0.00,,,0.04,meteohub,2012-11-07 21:22:00,
2012-11-07 13:27:00,45.9,45.3,28.83,SE,135,0.0,2.0,98,0.00,,,0.04,meteohub,2012-11-07 21:27:00,
2012-11-07 13:32:00,45.9,45.3,28.83,SE,135,0.0,2.0,98,0.00,,,0.04,meteohub,2012-11-07 21:32:00,
2012-11-07 13:37:00,45.7,45.1,28.83,SE,135,1.0,1.0,98,0.00,,,0.04,meteohub,2012-11-07 21:37:00,
2012-11-07 13:42:00,45.7,45.1,28.80,SE,135,0.0,2.0,98,0.04,,,0.08,meteohub,2012-11-07 21:42:00,
2012-11-07 13:47:00,45.9,45.3,28.80,SE,135,0.0,2.0,98,0.04,,,0.08,meteohub,2012-11-07 21:47:00,
2012-11-07 13:52:00,46.0,45.5,28.80,SE,135,0.0,2.0,98,0.04,,,0.08,meteohub,2012-11-07 21:52:00,
2012-11-07 13:57:00,46.2,45.7,28.80,SE,135,0.0,0.0,98,0.04,,,0.08,meteohub,2012-11-07 21:57:00,
2012-11-07 14:02:00,46.2,45.7,28.80,SE,135,0.0,0.0,98,0.04,,,0.08,meteohub,2012-11-07 22:02:00,
2012-11-07 14:07:00,46.2,45.7,28.80,SE,135,0.0,0.0,98,0.04,,,0.08,meteohub,2012-11-07 22:07:00,
2012-11-07 14:12:00,46.2,45.7,28.80,SE,135,0.0,0.0,98,0.04,,,0.08,meteohub,2012-11-07 22:12:00,
2012-11-07 14:17:00,46.0,45.5,28.80,SE,135,0.0,0.0,98,0.04,,,0.08,meteohub,2012-11-07 22:17:00,
2012-11-07 14:22:00,46.0,45.5,28.80,SE,135,0.0,0.0,98,0.04,,,0.08,meteohub,2012-11-07 22:22:00,
2012-11-07 14:27:00,46.0,45.5,28.77,SE,135,0.0,0.0,98,0.04,,,0.08,meteohub,2012-11-07 22:27:00,
2012-11-07 14:32:00,46.2,45.7,28.77,SE,135,0.0,0.0,98,0.04,,,0.08,meteohub,2012-11-07 22:32:00,
2012-11-07 14:37:00,46.2,45.7,28.77,SE,135,0.0,0.0,98,0.04,,,0.08,meteohub,2012-11-07 22:37:00,
2012-11-07 14:42:00,46.2,45.7,28.80,SE,135,0.0,0.0,98,0.00,,,0.08,meteohub,2012-11-07 22:42:00,
2012-11-07 14:47:00,46.2,45.7,28.80,SE,135,0.0,0.0,98,0.00,,,0.08,meteohub,2012-11-07 22:47:00,
2012-11-07 14:52:00,46.0,45.5,28.80,SE,135,0.0,0.0,98,0.00,,,0.08,meteohub,2012-11-07 22:52:00,
2012-11-07 14:57:00,45.9,45.3,28.80,SE,135,0.0,1.0,98,0.00,,,0.08,meteohub,2012-11-07 22:57:00,
2012-11-07 15:02:00,45.5,45.0,28.80,SE,135,0.0,1.0,98,0.00,,,0.08,meteohub,2012-11-07 23:02:00,
2012-11-07 15:07:00,45.3,44.8,28.80,SE,135,0.0,1.0,98,0.00,,,0.08,meteohub,2012-11-07 23:07:00,
2012-11-07 15:12:00,45.0,44.4,28.80,SE,135,0.0,0.0,98,0.00,,,0.08,meteohub,2012-11-07 23:12:00,
2012-11-07 15:17:00,44.8,44.2,28.80,SE,135,0.0,0.0,98,0.00,,,0.08,meteohub,2012-11-07 23:17:00,
2012-11-07 15:22:00,44.8,44.2,28.80,SE,135,0.0,0.0,98,0.00,,,0.08,meteohub,2012-11-07 23:22:00,
2012-11-07 15:27:00,44.8,44.2,28.80,SE,135,0.0,0.0,98,0.00,,,0.08,meteohub,2012-11-07 23:27:00,
2012-11-07 15:32:00,44.8,44.2,28.80,SE,135,0.0,0.0,98,0.00,,,0.08,meteohub,2012-11-07 23:32:00,
2012-11-07 15:37:00,44.8,44.2,28.80,SE,135,0.0,0.0,98,0.00,,,0.08,meteohub,2012-11-07 23:37:00,
2012-11-07 15:42:00,45.0,44.4,28.80,SE,135,0.0,0.0,98,0.00,,,0.08,meteohub,2012-11-07 23:42:00,
2012-11-07 15:47:00,45.0,44.4,28.80,SE,135,0.0,0.0,98,0.00,,,0.08,meteohub,2012-11-07 23:47:00,
2012-11-07 15:52:00,45.0,44.4,28.80,SE,135,0.0,0.0,98,0.00,,,0.08,meteohub,2012-11-07 23:52:00,
2012-11-07 15:57:00,45.0,44.4,28.80,SE,135,0.0,0.0,98,0.00,,,0.08,meteohub,2012-11-07 23:57:00,
2012-11-07 16:02:00,45.1,44.6,28.80,SE,135,0.0,0.0,98,0.00,,,0.08,meteohub,2012-11-08 00:02:00,
2012-11-07 16:07:00,45.1,44.6,28.80,SE,135,0.0,0.0,98,0.00,,,0.08,meteohub,2012-11-08 00:07:00,
2012-11-07 16:12:00,45.1,44.6,28.77,SE,135,0.0,0.0,98,0.00,,,0.08,meteohub,2012-11-08 00:12:00,
2012-11-07 16:17:00,45.1,44.6,28.77,SE,135,0.0,0.0,98,0.00,,,0.08,meteohub,2012-11-08 00:17:00,
2012-11-07 16:22:00,45.1,44.6,28.77,SE,135,0.0,0.0,98,0.00,,,0.08,meteohub,2012-11-08 00:22:00,
2012-11-07 16:27:00,45.1,44.6,28.77,SE,135,0.0,0.0,98,0.00,,,0.08,meteohub,2012-11-08 00:27:00,
2012-11-07 16:32:00,45.1,44.6,28.77,SE,135,0.0,0.0,98,0.00,,,0.08,meteohub,2012-11-08 00:32:00,
2012-11-07 16:37:00,45.1,44.6,28.77,SE,135,0.0,0.0,98,0.00,,,0.08,meteohub,2012-11-08 00:37:00,
2012-11-07 16:42:00,45.0,44.4,28.77,SE,135,0.0,0.0,98,0.00,,,0.08,meteohub,2012-11-08 00:42:00,
2012-11-07 16:47:00,45.0,44.4,28.77,SE,135,0.0,0.0,98,0.00,,,0.08,meteohub,2012-11-08 00:47:00,
2012-11-07 16:52:00,45.0,44.4,28.77,SE,135,0.0,0.0,98,0.00,,,0.08,meteohub,2012-11-08 00:52:00,
2012-11-07 16:57:00,45.0,44.4,28.74,SE,135,0.0,0.0,98,0.00,,,0.08,meteohub,2012-11-08 00:57:00,
2012-11-07 17:02:00,44.8,44.2,28.74,SSE,158,1.0,0.0,98,0.00,,,0.08,meteohub,2012-11-08 01:02:00,
2012-11-07 17:07:00,44.8,44.2,28.74,SSE,158,0.0,1.0,98,0.00,,,0.08,meteohub,2012-11-08 01:07:00,
2012-11-07 17:12:00,44.6,44.1,28.74,SSE,158,0.0,1.0,98,0.00,,,0.08,meteohub,2012-11-08 01:12:00,
2012-11-07 17:17:00,44.6,44.1,28.74,SSE,158,0.0,1.0,98,0.00,,,0.08,meteohub,2012-11-08 01:17:00,
2012-11-07 17:22:00,44.4,43.9,28.74,SSE,158,0.0,0.0,98,0.00,,,0.08,meteohub,2012-11-08 01:22:00,
2012-11-07 17:27:00,44.2,43.7,28.74,SSE,158,0.0,0.0,98,0.00,,,0.08,meteohub,2012-11-08 01:27:00,
2012-11-07 17:32:00,44.2,43.7,28.74,SSE,158,0.0,0.0,98,0.00,,,0.08,meteohub,2012-11-08 01:32:00,
2012-11-07 17:37:00,44.2,43.7,28.74,SSE,158,0.0,0.0,98,0.00,,,0.08,meteohub,2012-11-08 01:37:00,
2012-11-07 17:42:00,44.1,43.5,28.74,SSE,158,0.0,0.0,98,0.00,,,0.08,meteohub,2012-11-08 01:42:00,
2012-11-07 17:47:00,44.1,43.5,28.74,SSE,158,0.0,0.0,98,0.00,,,0.08,meteohub,2012-11-08 01:47:00,
2012-11-07 17:52:00,44.1,43.5,28.74,SSE,158,0.0,0.0,98,0.00,,,0.08,meteohub,2012-11-08 01:52:00,
2012-11-07 17:57:00,43.9,43.3,28.74,SSE,158,0.0,0.0,98,0.00,,,0.08,meteohub,2012-11-08 01:57:00,
2012-11-07 18:02:00,43.7,43.2,28.74,SSE,158,0.0,0.0,98,0.00,,,0.08,meteohub,2012-11-08 02:02:00,
2012-11-07 18:07:00,43.7,43.2,28.74,SSE,158,0.0,0.0,98,0.00,,,0.08,meteohub,2012-11-08 02:07:00,
2012-11-07 18:12:00,43.5,43.0,28.74,SSE,158,0.0,0.0,98,0.00,,,0.08,meteohub,2012-11-08 02:12:00,
2012-11-07 18:17:00,43.5,43.0,28.74,SSE,158,0.0,0.0,98,0.00,,,0.08,meteohub,2012-11-08 02:17:00,
2012-11-07 18:22:00,43.3,42.8,28.74,SSE,158,0.0,0.0,98,0.00,,,0.08,meteohub,2012-11-08 02:22:00,
2012-11-07 18:27:00,43.3,42.8,28.71,SSE,158,0.0,0.0,98,0.00,,,0.08,meteohub,2012-11-08 02:27:00,
2012-11-07 18:32:00,43.2,42.6,28.71,SSE,158,0.0,0.0,98,0.00,,,0.08,meteohub,2012-11-08 02:32:00,
2012-11-07 18:37:00,43.0,42.4,28.71,SSE,158,0.0,0.0,98,0.00,,,0.08,meteohub,2012-11-08 02:37:00,
2012-11-07 18:42:00,43.0,42.4,28.71,SSE,158,0.0,0.0,98,0.00,,,0.08,meteohub,2012-11-08 02:42:00,
2012-11-07 18:47:00,43.0,42.4,28.71,SSE,158,0.0,0.0,98,0.00,,,0.08,meteohub,2012-11-08 02:47:00,
2012-11-07 18:52:00,42.8,42.3,28.71,SSE,158,0.0,0.0,98,0.00,,,0.08,meteohub,2012-11-08 02:52:00,
2012-11-07 18:57:00,42.6,42.1,28.71,SSE,158,0.0,0.0,98,0.00,,,0.08,meteohub,2012-11-08 02:57:00,
2012-11-07 19:02:00,42.4,41.9,28.71,SSE,158,0.0,0.0,98,0.00,,,0.08,meteohub,2012-11-08 03:02:00,
2012-11-07 19:07:00,42.3,41.7,28.71,SSE,158,0.0,0.0,98,0.00,,,0.08,meteohub,2012-11-08 03:07:00,
2012-11-07 19:12:00,42.3,41.7,28.71,SSE,158,0.0,0.0,98,0.00,,,0.08,meteohub,2012-11-08 03:12:00,
2012-11-07 19:18:00,42.3,41.7,28.71,SSE,158,0.0,0.0,98,0.00,,,0.08,meteohub,2012-11-08 03:18:00,
2012-11-07 19:23:00,42.3,41.7,28.71,SSE,158,0.0,0.0,98,0.00,,,0.08,meteohub,2012-11-08 03:23:00,
2012-11-07 19:29:00,42.1,41.5,28.69,SSE,158,0.0,0.0,98,0.00,,,0.08,meteohub,2012-11-08 03:29:00,
2012-11-07 19:34:00,42.1,41.5,28.69,SSE,158,0.0,0.0,98,0.00,,,0.08,meteohub,2012-11-08 03:34:00,
2012-11-07 19:40:00,42.1,41.5,28.69,SSE,158,0.0,0.0,98,0.00,,,0.08,meteohub,2012-11-08 03:40:00,
2012-11-07 19:45:00,42.1,41.5,28.69,SSE,158,0.0,0.0,98,0.00,,,0.08,meteohub,2012-11-08 03:45:00,
2012-11-07 19:50:00,42.1,41.5,28.69,SSE,158,0.0,0.0,98,0.00,,,0.08,meteohub,2012-11-08 03:50:00,
2012-11-07 19:56:00,41.9,41.4,28.69,SSE,158,0.0,0.0,98,0.00,,,0.08,meteohub,2012-11-08 03:56:00,
2012-11-07 20:01:00,41.9,41.4,28.69,SSE,158,0.0,0.0,98,0.00,,,0.08,meteohub,2012-11-08 04:01:00,
2012-11-07 20:07:00,41.9,41.4,28.69,SSE,158,0.0,0.0,98,0.00,,,0.08,meteohub,2012-11-08 04:07:00,
2012-11-07 20:12:00,41.7,41.2,28.69,SSE,158,0.0,0.0,98,0.00,,,0.08,meteohub,2012-11-08 04:12:00,
2012-11-07 20:17:00,41.7,41.2,28.69,SSE,158,0.0,0.0,98,0.00,,,0.08,meteohub,2012-11-08 04:17:00,
2012-11-07 20:22:00,41.7,41.2,28.69,SSE,158,0.0,0.0,98,0.00,,,0.08,meteohub,2012-11-08 04:22:00,
2012-11-07 20:27:00,41.7,41.2,28.69,SSE,158,0.0,0.0,98,0.00,,,0.08,meteohub,2012-11-08 04:27:00,
2012-11-07 20:32:00,41.7,41.2,28.69,SSE,158,0.0,0.0,98,0.00,,,0.08,meteohub,2012-11-08 04:32:00,
2012-11-07 20:37:00,41.7,41.2,28.69,SSE,158,0.0,0.0,98,0.00,,,0.08,meteohub,2012-11-08 04:37:00,
2012-11-07 20:42:00,41.7,41.2,28.69,SSE,158,0.0,0.0,98,0.00,,,0.08,meteohub,2012-11-08 04:42:00,
2012-11-07 20:47:00,41.5,41.0,28.69,SSE,158,0.0,0.0,98,0.00,,,0.08,meteohub,2012-11-08 04:47:00,
2012-11-07 20:52:00,41.7,41.2,28.69,SSE,158,0.0,0.0,98,0.00,,,0.08,meteohub,2012-11-08 04:52:00,
2012-11-07 20:57:00,41.5,41.0,28.69,SSE,158,0.0,0.0,98,0.00,,,0.08,meteohub,2012-11-08 04:57:00,
2012-11-07 21:00:00,41.5,41.0,28.69,SSE,158,0.0,0.0,98,0.00,,,0.08,meteohub,2012-11-08 05:00:00,
2012-11-07 21:01:00,41.5,41.0,28.69,SSE,158,0.0,0.0,98,0.00,,,0.08,meteohub,2012-11-08 05:01:00,
2012-11-07 21:03:00,41.5,41.0,28.69,SSE,158,0.0,0.0,98,0.00,,,0.08,meteohub,2012-11-08 05:03:00,
2012-11-07 21:09:00,41.5,41.0,28.69,SSE,158,0.0,0.0,98,0.00,,,0.08,meteohub,2012-11-08 05:09:00,
2012-11-07 21:14:00,41.5,41.0,28.66,SSE,158,0.0,0.0,98,0.00,,,0.08,meteohub,2012-11-08 05:14:00,
2012-11-07 21:19:00,41.5,41.0,28.66,SSE,158,0.0,0.0,98,0.00,,,0.08,meteohub,2012-11-08 05:19:00,
2012-11-07 21:25:00,41.5,41.0,28.66,SSE,158,0.0,0.0,98,0.00,,,0.08,meteohub,2012-11-08 05:25:00,
2012-11-07 21:30:00,41.5,41.0,28.66,SSE,158,0.0,0.0,98,0.00,,,0.08,meteohub,2012-11-08 05:30:00,
2012-11-07 21:35:00,41.5,41.0,28.66,SSE,158,0.0,0.0,98,0.00,,,0.08,meteohub,2012-11-08 05:35:00,
2012-11-07 21:40:00,41.5,41.0,28.66,SSE,158,0.0,0.0,98,0.00,,,0.08,meteohub,2012-11-08 05:40:00,
2012-11-07 21:46:00,41.5,41.0,28.66,SSE,158,0.0,0.0,98,0.00,,,0.08,meteohub,2012-11-08 05:46:00,
2012-11-07 21:51:00,41.5,41.0,28.66,SSE,158,0.0,0.0,98,0.00,,,0.08,meteohub,2012-11-08 05:51:00,
2012-11-07 21:57:00,41.5,41.0,28.66,SSE,158,0.0,0.0,98,0.00,,,0.08,meteohub,2012-11-08 05:57:00,
2012-11-07 22:02:00,41.4,40.8,28.66,SSE,158,0.0,0.0,98,0.00,,,0.08,meteohub,2012-11-08 06:02:00,
2012-11-07 22:07:00,41.4,40.8,28.66,SSE,158,0.0,0.0,98,0.00,,,0.08,meteohub,2012-11-08 06:07:00,
2012-11-07 22:12:00,41.4,40.8,28.63,SSE,158,0.0,0.0,98,0.00,,,0.08,meteohub,2012-11-08 06:12:00,
2012-11-07 22:17:00,41.2,40.6,28.63,SSE,158,0.0,0.0,98,0.00,,,0.08,meteohub,2012-11-08 06:17:00,
2012-11-07 22:22:00,41.2,40.6,28.63,SSE,158,0.0,0.0,98,0.00,,,0.08,meteohub,2012-11-08 06:22:00,
2012-11-07 22:27:00,41.2,40.6,28.63,SSE,158,0.0,0.0,98,0.00,,,0.08,meteohub,2012-11-08 06:27:00,
2012-11-07 22:32:00,41.2,40.6,28.63,SSE,158,0.0,0.0,98,0.00,,,0.08,meteohub,2012-11-08 06:32:00,
2012-11-07 22:37:00,41.2,40.6,28.63,SSE,158,0.0,0.0,98,0.00,,,0.08,meteohub,2012-11-08 06:37:00,
2012-11-07 22:42:00,41.2,40.6,28.63,SSE,158,0.0,0.0,98,0.00,,,0.08,meteohub,2012-11-08 06:42:00,
2012-11-07 22:47:00,41.2,40.6,28.63,SSE,158,0.0,0.0,98,0.00,,,0.08,meteohub,2012-11-08 06:47:00,
2012-11-07 22:52:00,41.2,40.6,28.63,SSE,158,0.0,0.0,98,0.00,,,0.08,meteohub,2012-11-08 06:52:00,
2012-11-07 22:57:00,41.2,40.6,28.63,SSE,158,0.0,0.0,98,0.00,,,0.08,meteohub,2012-11-08 06:57:00,
2012-11-07 23:02:00,41.2,40.6,28.63,SSE,158,0.0,0.0,98,0.00,,,0.08,meteohub,2012-11-08 07:02:00,
2012-11-07 23:07:00,41.2,40.6,28.63,SSE,158,0.0,0.0,98,0.00,,,0.08,meteohub,2012-11-08 07:07:00,
2012-11-07 23:12:00,41.2,40.6,28.63,SSE,158,0.0,0.0,98,0.00,,,0.08,meteohub,2012-11-08 07:12:00,
2012-11-07 23:17:00,41.4,40.8,28.63,SSE,158,0.0,0.0,98,0.00,,,0.08,meteohub,2012-11-08 07:17:00,
2012-11-07 23:22:00,41.4,40.8,28.63,SSE,158,0.0,0.0,98,0.00,,,0.08,meteohub,2012-11-08 07:22:00,
2012-11-07 23:27:00,41.5,41.0,28.63,SSE,158,0.0,0.0,98,0.00,,,0.08,meteohub,2012-11-08 07:27:00,
2012-11-07 23:32:00,41.5,41.0,28.63,SSE,158,0.0,0.0,98,0.00,,,0.08,meteohub,2012-11-08 07:32:00,
2012-11-07 23:37:00,41.5,41.0,28.63,SSE,158,0.0,0.0,98,0.00,,,0.08,meteohub,2012-11-08 07:37:00,
2012-11-07 23:42:00,41.5,41.0,28.63,SSE,158,0.0,0.0,98,0.00,,,0.08,meteohub,2012-11-08 07:42:00,
2012-11-07 23:47:00,41.5,41.0,28.63,SSE,158,0.0,0.0,98,0.00,,,0.08,meteohub,2012-11-08 07:47:00,
2012-11-07 23:52:00,41.5,41.0,28.63,SSE,158,0.0,0.0,98,0.00,,,0.08,meteohub,2012-11-08 07:52:00,
2012-11-07 23:57:00,41.5,41.0,28.63,SSE,158,0.0,0.0,98,0.00,,,0.08,meteohub,2012-11-08 07:57:00,